RJOS(METAR)
05/21 23:00
METAR RJOS 211400Z 35003KT 9999 FEW030 BKN050 18/13 Q1007 RMK 1CU030
5SC050 A2974=
戻る
トップページへ戻る
IMOC Co,.Ltd.